Terminal Aerodrome Forecast
Issued by NWS Milwaukee/Sullivan, WI

Home | Current Version | Previous Version | Text Only | Print | Product List | Glossary On
Versions: 1 2 3 4 5 6 7 8 9 10 11 12 13 14 15 16 17 18 19 20 21 22 23 24 25 26 27 28 29 30 31 32 33
000
FTUS43 KMKX 190206 AAA
TAFMSN
TAF AMD
KMSN 190206Z 1902/1924 20007KT 4SM BR OVC007
     FM190600 22006KT 3SM BR OVC004
     FM191700 18005KT 4SM BR BKN012
     FM192000 15004KT P6SM BKN025=

USA.gov is the U.S. government's official web portal to all federal, state and local government web resources and services.